createdAt,value
2019-04-29T00:00:16.984Z,37.47
2019-04-29T00:02:43.167Z,37.70
2019-04-29T00:05:09.624Z,38.47
2019-04-29T00:07:36.226Z,38.77
2019-04-29T00:10:06.695Z,38.08
2019-04-29T00:12:32.867Z,38.94
2019-04-29T00:15:00.954Z,39.99
2019-04-29T00:17:29.156Z,40.05
2019-04-29T00:19:57.214Z,40.76
2019-04-29T00:22:23.499Z,40.07
2019-04-29T00:24:49.846Z,39.62
2019-04-29T00:27:16.044Z,41.12
2019-04-29T00:29:42.241Z,40.72
2019-04-29T00:32:09.494Z,40.21
2019-04-29T00:34:35.666Z,41.79
2019-04-29T00:37:09.456Z,41.35
2019-04-29T00:39:54.089Z,40.65
2019-04-29T00:42:22.197Z,40.69
2019-04-29T00:44:48.547Z,40.19
2019-04-29T00:47:14.820Z,38.98
2019-04-29T00:49:40.999Z,38.92
2019-04-29T00:52:07.167Z,38.91
2019-04-29T00:54:37.884Z,38.68
2019-04-29T00:57:04.193Z,38.22
2019-04-29T00:59:30.361Z,38.57
2019-04-29T01:01:56.634Z,38.89
2019-04-29T01:04:22.819Z,39.01
2019-04-29T01:06:48.971Z,38.54
2019-04-29T01:09:17.145Z,38.39
2019-04-29T01:11:43.397Z,38.32
2019-04-29T01:14:09.564Z,38.21
2019-04-29T01:16:35.738Z,38.33
2019-04-29T01:19:03.900Z,38.14
2019-04-29T01:21:30.002Z,38.25
2019-04-29T01:23:56.169Z,38.42
2019-04-29T01:26:39.090Z,38.69
2019-04-29T01:29:07.143Z,39.25
2019-04-29T01:31:33.403Z,38.52
2019-04-29T01:34:01.518Z,38.67
2019-04-29T01:36:29.564Z,38.57
2019-04-29T01:38:57.645Z,38.90
2019-04-29T01:41:40.858Z,38.95
2019-04-29T01:44:08.720Z,38.90
2019-04-29T01:46:34.973Z,39.26
2019-04-29T01:49:02.383Z,39.46
2019-04-29T01:51:28.559Z,38.90
2019-04-29T01:53:54.813Z,38.51
2019-04-29T01:56:21.027Z,37.83
2019-04-29T01:58:47.185Z,37.81
2019-04-29T02:01:13.449Z,38.13
2019-04-29T02:03:39.663Z,39.14
2019-04-29T02:06:05.814Z,39.80
2019-04-29T02:08:32.094Z,39.16
2019-04-29T02:10:58.424Z,39.49
2019-04-29T02:13:24.592Z,39.28
2019-04-29T02:15:50.766Z,38.85
2019-04-29T02:18:17.055Z,39.24
2019-04-29T02:20:43.217Z,39.28
2019-04-29T02:23:11.294Z,38.99
2019-04-29T02:25:45.426Z,38.77
2019-04-29T02:28:11.580Z,38.71
2019-04-29T02:30:44.480Z,39.05
2019-04-29T02:33:10.671Z,40.44
2019-04-29T02:35:36.823Z,39.34
2019-04-29T02:38:04.900Z,38.90
2019-04-29T02:40:33.016Z,38.79
2019-04-29T02:43:01.166Z,39.26
2019-04-29T02:45:29.227Z,38.81
2019-04-29T02:47:55.451Z,38.60
2019-04-29T02:50:21.724Z,40.19
2019-04-29T02:52:47.873Z,41.21
2019-04-29T02:55:16.080Z,41.32
2019-04-29T02:57:44.145Z,41.29
2019-04-29T03:00:18.059Z,40.98
2019-04-29T03:02:46.168Z,41.86
2019-04-29T03:05:14.236Z,41.00
2019-04-29T03:07:40.436Z,40.95
2019-04-29T03:10:06.991Z,41.29
2019-04-29T03:12:33.863Z,40.96
2019-04-29T03:15:00.067Z,40.84
2019-04-29T03:17:27.728Z,40.63
2019-04-29T03:20:07.699Z,40.48
2019-04-29T03:22:34.604Z,40.00
2019-04-29T03:25:00.773Z,39.89
2019-04-29T03:27:26.983Z,40.60
2019-04-29T03:29:53.144Z,40.99
2019-04-29T03:32:19.324Z,40.83
2019-04-29T03:34:45.517Z,40.81
2019-04-29T03:37:11.681Z,40.59
2019-04-29T03:39:37.845Z,40.24
2019-04-29T03:42:07.204Z,40.14
2019-04-29T03:44:32.121Z,41.25
2019-04-29T03:46:58.295Z,40.04
2019-04-29T03:49:24.506Z,39.72
2019-04-29T03:51:50.678Z,39.90
2019-04-29T03:54:16.876Z,39.47
2019-04-29T03:56:44.262Z,39.44
2019-04-29T03:59:10.517Z,39.01
2019-04-29T04:01:38.615Z,38.96
2019-04-29T04:04:06.770Z,38.32
2019-04-29T04:06:40.388Z,38.71
2019-04-29T04:09:20.118Z,39.45
2019-04-29T04:11:46.283Z,38.63
2019-04-29T04:14:12.446Z,37.85
2019-04-29T04:16:57.107Z,37.40
2019-04-29T04:19:24.741Z,37.06
2019-04-29T04:21:50.891Z,36.45
2019-04-29T04:24:17.081Z,35.58
2019-04-29T04:26:43.284Z,35.71
2019-04-29T04:29:09.450Z,35.87
2019-04-29T04:31:35.635Z,35.08
2019-04-29T04:34:01.814Z,35.21
2019-04-29T04:36:27.962Z,34.97
2019-04-29T04:38:54.166Z,35.24
2019-04-29T04:41:20.343Z,34.46
2019-04-29T04:43:46.487Z,33.95
2019-04-29T04:46:12.803Z,33.53
2019-04-29T04:48:38.979Z,33.25
2019-04-29T04:51:05.136Z,32.98
2019-04-29T04:53:31.354Z,32.37
2019-04-29T04:55:59.309Z,32.15
2019-04-29T04:58:25.466Z,31.81
2019-04-29T05:00:51.779Z,31.53
2019-04-29T05:03:17.956Z,30.78
2019-04-29T05:05:44.119Z,30.02
2019-04-29T05:08:10.317Z,29.09
2019-04-29T05:10:36.489Z,28.85
2019-04-29T05:13:02.644Z,29.98
2019-04-29T05:15:28.867Z,30.95
2019-04-29T05:17:55.052Z,33.18
2019-04-29T05:20:21.200Z,33.05
2019-04-29T05:22:59.023Z,33.68
2019-04-29T05:25:26.414Z,33.90
2019-04-29T05:27:52.592Z,32.76
2019-04-29T05:30:18.790Z,32.98
2019-04-29T05:32:44.989Z,34.64
2019-04-29T05:35:13.013Z,33.65
2019-04-29T05:37:46.658Z,33.12
2019-04-29T05:40:14.739Z,35.19
2019-04-29T05:42:40.909Z,34.92
2019-04-29T05:45:18.120Z,33.28
2019-04-29T05:47:52.258Z,32.39
2019-04-29T05:50:27.781Z,35.76
2019-04-29T05:52:58.360Z,35.82
2019-04-29T05:55:24.538Z,36.77
2019-04-29T05:57:50.742Z,37.27
2019-04-29T06:00:18.887Z,36.92
2019-04-29T06:02:46.011Z,37.13
2019-04-29T06:05:12.197Z,36.59
2019-04-29T06:07:38.352Z,35.20
2019-04-29T06:10:05.436Z,33.90
2019-04-29T06:12:31.626Z,32.24
2019-04-29T06:14:57.825Z,30.27
2019-04-29T06:17:24.004Z,29.90
2019-04-29T06:19:50.295Z,29.72
2019-04-29T06:22:16.455Z,29.05
2019-04-29T06:24:42.751Z,29.75
2019-04-29T06:27:08.960Z,28.72
2019-04-29T06:29:35.123Z,28.94
2019-04-29T06:32:01.306Z,28.78
2019-04-29T06:34:27.900Z,28.78
2019-04-29T06:36:54.065Z,30.03
2019-04-29T06:39:20.250Z,29.10
2019-04-29T06:41:46.977Z,27.89
2019-04-29T06:44:16.663Z,28.67
2019-04-29T06:46:41.363Z,28.73
2019-04-29T06:49:10.309Z,28.70
2019-04-29T06:51:35.637Z,27.31
2019-04-29T06:54:01.807Z,26.31
2019-04-29T06:56:28.031Z,25.30
2019-04-29T06:58:54.180Z,26.01
2019-04-29T07:01:20.340Z,26.72
2019-04-29T07:03:46.556Z,25.53
2019-04-29T07:06:12.735Z,25.65
2019-04-29T07:08:38.896Z,26.56
2019-04-29T07:11:05.181Z,25.53
2019-04-29T07:13:31.351Z,25.14
2019-04-29T07:15:57.603Z,24.26
2019-04-29T07:18:23.828Z,23.68
2019-04-29T07:20:49.988Z,23.41
2019-04-29T07:23:16.266Z,23.00
2019-04-29T07:25:42.471Z,22.01
2019-04-29T07:28:08.624Z,21.51
2019-04-29T07:30:39.255Z,21.64
2019-04-29T07:33:05.548Z,22.30
2019-04-29T07:35:31.270Z,20.69
2019-04-29T07:37:57.457Z,20.18
2019-04-29T07:40:23.664Z,20.14
2019-04-29T07:42:49.907Z,19.64
2019-04-29T07:45:18.183Z,19.22
2019-04-29T07:47:56.355Z,18.65
2019-04-29T07:50:14.614Z,21.47
2019-04-29T07:52:40.936Z,23.04
2019-04-29T07:55:07.952Z,22.74
2019-04-29T07:57:34.107Z,22.89
2019-04-29T08:00:00.266Z,22.19
2019-04-29T08:02:26.590Z,22.08
2019-04-29T08:04:52.868Z,20.40
2019-04-29T08:07:19.120Z,20.25
2019-04-29T08:09:46.339Z,20.24
2019-04-29T08:12:12.900Z,21.67
2019-04-29T08:14:39.168Z,22.29
2019-04-29T08:17:05.495Z,24.13
2019-04-29T08:19:31.869Z,23.63
2019-04-29T08:21:58.036Z,26.05
2019-04-29T08:24:24.247Z,26.77
2019-04-29T08:26:50.428Z,24.83
2019-04-29T08:29:16.586Z,26.23
2019-04-29T08:31:42.795Z,25.84
2019-04-29T08:34:08.972Z,24.69
2019-04-29T08:36:35.228Z,24.85
2019-04-29T08:39:08.214Z,25.26
2019-04-29T08:41:31.827Z,24.80
2019-04-29T08:44:16.446Z,23.98
2019-04-29T08:46:38.878Z,24.45
2019-04-29T08:49:06.156Z,23.41
2019-04-29T08:51:33.271Z,25.56
2019-04-29T08:53:59.424Z,23.14
2019-04-29T08:56:25.718Z,23.77
2019-04-29T08:58:51.899Z,23.25
2019-04-29T09:01:18.061Z,24.99
2019-04-29T09:03:44.337Z,23.31
2019-04-29T09:06:10.656Z,21.94
2019-04-29T09:08:36.840Z,25.77
2019-04-29T09:11:03.215Z,24.54
2019-04-29T09:13:29.442Z,23.93
2019-04-29T09:15:55.595Z,21.78
2019-04-29T09:18:21.750Z,20.03
2019-04-29T09:20:47.977Z,19.45
2019-04-29T09:23:16.059Z,20.13
2019-04-29T09:26:02.721Z,20.40
2019-04-29T09:28:29.885Z,22.38
2019-04-29T09:30:56.323Z,23.58
2019-04-29T09:33:22.762Z,23.33
2019-04-29T09:35:48.942Z,23.08
2019-04-29T09:38:15.133Z,22.08
2019-04-29T09:40:59.624Z,22.98
2019-04-29T09:43:34.035Z,22.51
2019-04-29T09:46:02.155Z,21.99
2019-04-29T09:48:28.319Z,20.80
2019-04-29T09:50:54.503Z,20.59
2019-04-29T09:53:20.811Z,21.35
2019-04-29T09:55:47.072Z,19.24
2019-04-29T09:58:13.256Z,21.12
2019-04-29T10:03:30.240Z,20.08
2019-04-29T10:05:58.335Z,19.19
2019-04-29T10:08:24.519Z,18.53
2019-04-29T10:10:50.667Z,18.36
2019-04-29T10:13:16.861Z,19.65
2019-04-29T10:16:02.066Z,22.04
2019-04-29T10:18:46.650Z,20.62
2019-04-29T10:21:16.529Z,21.13
2019-04-29T10:23:42.865Z,22.66
2019-04-29T10:26:09.177Z,21.64
2019-04-29T10:28:37.240Z,20.49
2019-04-29T10:31:04.218Z,20.15
2019-04-29T10:33:30.423Z,19.32
2019-04-29T10:35:56.679Z,19.42
2019-04-29T10:38:22.857Z,21.10
2019-04-29T10:43:43.828Z,23.64
2019-04-29T10:46:20.956Z,24.89
2019-04-29T10:48:52.254Z,23.04
2019-04-29T10:51:18.710Z,21.39
2019-04-29T10:53:46.612Z,20.61
2019-04-29T10:56:13.799Z,20.94
2019-04-29T10:58:39.956Z,21.92
2019-04-29T11:01:42.220Z,21.44
2019-04-29T11:04:08.858Z,20.14
2019-04-29T11:06:35.765Z,21.23
2019-04-29T11:11:44.204Z,21.04
2019-04-29T11:14:10.531Z,21.29
2019-04-29T11:16:46.066Z,20.68
2019-04-29T11:19:05.780Z,19.79
2019-04-29T11:21:32.493Z,20.38
2019-04-29T11:24:12.712Z,20.36
2019-04-29T11:26:49.587Z,20.54
2019-04-29T11:29:15.916Z,21.40
2019-04-29T11:31:42.173Z,20.92
2019-04-29T11:34:17.972Z,20.63
2019-04-29T11:36:44.278Z,19.72
2019-04-29T11:39:15.541Z,20.40
2019-04-29T11:41:41.802Z,19.10
2019-04-29T11:44:08.026Z,18.26
2019-04-29T11:46:34.306Z,18.05
2019-04-29T11:49:02.373Z,19.39
2019-04-29T11:51:54.213Z,19.13
2019-04-29T11:54:08.138Z,18.84
2019-04-29T11:56:35.865Z,18.32
2019-04-29T11:59:07.703Z,17.76
2019-04-29T12:01:53.475Z,17.10
2019-04-29T12:04:28.633Z,17.30
2019-04-29T12:06:56.254Z,16.74
2019-04-29T12:09:25.488Z,17.94
2019-04-29T12:11:51.743Z,16.75
2019-04-29T12:17:28.249Z,16.25
2019-04-29T12:20:02.375Z,16.87
2019-04-29T12:22:30.997Z,18.44
2019-04-29T12:24:57.514Z,18.44
2019-04-29T12:27:23.690Z,17.69
2019-04-29T12:29:54.437Z,17.35
2019-04-29T12:35:16.778Z,17.05
2019-04-29T12:38:05.896Z,17.31
2019-04-29T12:40:33.724Z,16.67
2019-04-29T12:43:04.573Z,16.67
2019-04-29T12:45:32.661Z,17.48
2019-04-29T12:47:58.933Z,16.67
2019-04-29T12:50:25.223Z,17.00
2019-04-29T12:52:51.424Z,18.26
2019-04-29T12:58:11.210Z,18.74
2019-04-29T13:00:47.493Z,18.39
2019-04-29T13:03:08.345Z,16.60
2019-04-29T13:05:42.266Z,18.65
2019-04-29T13:08:16.388Z,18.51
2019-04-29T13:10:44.477Z,17.62
2019-04-29T13:13:10.756Z,17.28
2019-04-29T13:15:56.104Z,15.95
2019-04-29T13:18:29.712Z,15.90
2019-04-29T13:21:09.203Z,17.00
2019-04-29T13:23:34.828Z,17.36
2019-04-29T13:25:56.119Z,17.36
2019-04-29T13:28:29.887Z,17.75
2019-04-29T13:30:51.545Z,17.14
2019-04-29T13:33:18.644Z,17.14
2019-04-29T13:35:48.465Z,16.68
2019-04-29T13:38:14.839Z,16.22
2019-04-29T13:40:42.937Z,16.43
2019-04-29T13:43:09.102Z,16.27
2019-04-29T13:45:37.209Z,15.82
2019-04-29T13:53:46.203Z,16.95
2019-04-29T13:56:32.210Z,17.15
2019-04-29T13:58:40.610Z,17.21
2019-04-29T14:01:22.057Z,17.39
2019-04-29T14:03:56.354Z,16.57
2019-04-29T14:06:22.624Z,17.43
2019-04-29T14:08:48.792Z,17.97
2019-04-29T14:11:15.128Z,19.17
2019-04-29T14:13:43.253Z,17.89
2019-04-29T14:16:12.035Z,17.89
2019-04-29T14:18:37.571Z,17.28
2019-04-29T14:21:03.842Z,16.80
2019-04-29T14:23:30.015Z,16.80
2019-04-29T14:25:56.290Z,16.50
2019-04-29T14:28:22.538Z,16.35
2019-04-29T14:30:49.227Z,16.49
2019-04-29T14:33:19.174Z,15.83
2019-04-29T14:35:50.117Z,15.63
2019-04-29T14:38:18.104Z,17.31
2019-04-29T14:40:44.309Z,17.31
2019-04-29T14:43:31.630Z,18.81
2019-04-29T14:45:58.832Z,18.31
2019-04-29T14:48:26.998Z,17.38
2019-04-29T14:50:56.111Z,17.88
2019-04-29T14:53:26.208Z,18.63
2019-04-29T14:55:52.365Z,18.20
2019-04-29T14:58:18.547Z,17.55
2019-04-29T15:03:29.230Z,18.32
2019-04-29T15:05:55.558Z,17.67
2019-04-29T15:08:21.752Z,17.13
2019-04-29T15:10:49.860Z,17.11
2019-04-29T15:13:21.388Z,17.04
2019-04-29T15:16:04.786Z,17.05
2019-04-29T15:21:32.022Z,18.44
2019-04-29T15:23:52.632Z,19.91
2019-04-29T15:26:20.435Z,19.16
2019-04-29T15:28:52.471Z,19.44
2019-04-29T15:31:22.266Z,20.21
2019-04-29T15:33:49.085Z,21.56
2019-04-29T15:36:15.287Z,22.14
2019-04-29T15:38:41.581Z,22.61
2019-04-29T15:41:07.868Z,23.92
2019-04-29T15:43:46.501Z,24.28
2019-04-29T15:46:02.164Z,24.32
2019-04-29T15:48:28.312Z,24.50
2019-04-29T15:50:54.469Z,24.48
2019-04-29T15:53:20.685Z,23.48
2019-04-29T15:55:46.837Z,24.08
2019-04-29T15:58:13.021Z,23.70
2019-04-29T16:00:40.429Z,24.06
2019-04-29T16:03:07.204Z,24.27
2019-04-29T16:05:56.142Z,23.62
2019-04-29T16:08:10.816Z,24.33
2019-04-29T16:10:57.852Z,25.51
2019-04-29T16:13:27.764Z,26.53
2019-04-29T16:15:51.698Z,26.88
2019-04-29T16:18:17.894Z,26.11
2019-04-29T16:20:44.058Z,26.25
2019-04-29T16:23:10.275Z,26.15
2019-04-29T16:25:40.523Z,25.98
2019-04-29T16:28:04.699Z,25.52
2019-04-29T16:30:32.008Z,25.32
2019-04-29T16:33:01.140Z,24.91
2019-04-29T16:35:34.481Z,25.05
2019-04-29T16:37:55.385Z,25.18
2019-04-29T16:40:22.787Z,26.07
2019-04-29T16:42:52.709Z,26.03
2019-04-29T16:45:20.867Z,26.16
2019-04-29T16:47:48.657Z,26.45
2019-04-29T16:50:14.955Z,26.48
2019-04-29T16:52:44.551Z,27.28
2019-04-29T16:55:09.551Z,27.33
2019-04-29T16:57:35.731Z,27.38
2019-04-29T17:02:33.700Z,27.23
2019-04-29T17:05:02.749Z,27.69
2019-04-29T17:07:29.232Z,27.94
2019-04-29T17:12:40.540Z,28.52
2019-04-29T17:15:23.642Z,28.35
2019-04-29T17:17:35.081Z,28.43
2019-04-29T17:20:01.963Z,28.43
2019-04-29T17:22:28.143Z,28.69
2019-04-29T17:24:54.300Z,29.21
2019-04-29T17:27:22.375Z,29.27
2019-04-29T17:30:03.487Z,29.25
2019-04-29T17:32:43.246Z,29.45
2019-04-29T17:35:05.075Z,29.50
2019-04-29T17:35:17.103Z,27.12
2019-04-29T17:37:32.216Z,29.22
2019-04-29T17:39:58.555Z,29.92
2019-04-29T17:42:26.683Z,29.72
2019-04-29T17:44:52.861Z,29.76
2019-04-29T17:47:37.841Z,29.91
2019-04-29T17:50:29.418Z,30.23
2019-04-29T17:52:47.222Z,30.57
2019-04-29T17:55:15.607Z,30.69
2019-04-29T17:57:43.686Z,30.06
2019-04-29T18:00:21.636Z,30.07
2019-04-29T18:02:57.284Z,30.55
2019-04-29T18:05:52.223Z,30.52
2019-04-29T18:08:05.247Z,31.72
2019-04-29T18:10:40.336Z,31.91
2019-04-29T18:13:06.735Z,31.58
2019-04-29T18:15:46.945Z,31.20
2019-04-29T18:18:07.271Z,32.00
2019-04-29T18:20:36.506Z,31.63
2019-04-29T18:23:11.063Z,32.09
2019-04-29T18:28:26.412Z,32.41
2019-04-29T18:30:54.465Z,32.18
2019-04-29T18:33:23.409Z,32.25
2019-04-29T18:35:48.983Z,33.21
2019-04-29T18:38:15.152Z,34.09
2019-04-29T18:40:42.257Z,34.19
2019-04-29T18:43:09.430Z,33.95
2019-04-29T18:45:36.809Z,33.56
2019-04-29T18:48:09.038Z,33.75
2019-04-29T18:50:34.227Z,33.59
2019-04-29T18:53:01.447Z,34.00
2019-04-29T18:55:28.186Z,33.95
2019-04-29T18:57:58.260Z,34.60
2019-04-29T19:00:22.723Z,34.93
2019-04-29T19:02:56.946Z,34.92
2019-04-29T19:05:18.978Z,35.36
2019-04-29T19:07:54.878Z,36.92
2019-04-29T19:10:17.893Z,36.84
2019-04-29T19:12:42.166Z,36.87
2019-04-29T19:15:11.774Z,36.44
2019-04-29T19:17:40.008Z,36.31
2019-04-29T19:20:08.655Z,35.22
2019-04-29T19:22:36.028Z,35.08
2019-04-29T19:25:03.044Z,36.04
2019-04-29T19:27:30.534Z,35.85
2019-04-29T19:29:59.151Z,35.52
2019-04-29T19:32:25.407Z,35.21
2019-04-29T19:34:54.932Z,34.99
2019-04-29T19:37:21.684Z,35.49
2019-04-29T19:39:47.839Z,36.95
2019-04-29T19:42:15.653Z,37.78
2019-04-29T19:44:42.223Z,38.34
2019-04-29T19:47:10.906Z,37.74
2019-04-29T19:49:40.205Z,37.25
2019-04-29T19:52:04.552Z,36.12
2019-04-29T19:54:30.701Z,36.52
2019-04-29T19:57:03.255Z,36.07
2019-04-29T19:59:26.122Z,35.84
2019-04-29T20:02:01.770Z,36.10
2019-04-29T20:04:39.510Z,35.73
2019-04-29T20:07:09.603Z,36.25
2019-04-29T20:09:37.227Z,37.31
2019-04-29T20:12:11.432Z,37.40
2019-04-29T20:14:33.745Z,37.36
2019-04-29T20:17:09.547Z,37.93
2019-04-29T20:19:30.695Z,37.00
2019-04-29T20:22:00.523Z,35.99
2019-04-29T20:24:26.378Z,35.83
2019-04-29T20:26:52.932Z,36.84
2019-04-29T20:29:19.808Z,36.58
2019-04-29T20:31:52.009Z,36.35
2019-04-29T20:34:20.119Z,36.19
2019-04-29T20:36:43.380Z,36.36
2019-04-29T20:39:15.320Z,36.08
2019-04-29T20:41:41.330Z,36.40
2019-04-29T20:44:09.189Z,36.27
2019-04-29T20:46:45.348Z,36.33
2019-04-29T20:49:05.696Z,36.36
2019-04-29T20:51:47.880Z,36.02
2019-04-29T20:54:04.478Z,36.50
2019-04-29T20:56:35.010Z,35.28
2019-04-29T20:59:02.085Z,36.20
2019-04-29T21:01:31.498Z,35.99
2019-04-29T21:03:58.021Z,36.56
2019-04-29T21:06:24.235Z,36.49
2019-04-29T21:08:51.230Z,35.46
2019-04-29T21:11:21.174Z,37.08
2019-04-29T21:13:56.007Z,37.22
2019-04-29T21:16:29.168Z,36.91
2019-04-29T21:18:54.264Z,36.02
2019-04-29T21:21:20.856Z,35.42
2019-04-29T21:23:48.247Z,35.17
2019-04-29T21:26:15.861Z,36.36
2019-04-29T21:28:44.629Z,36.39
2019-04-29T21:31:11.687Z,35.63
2019-04-29T21:33:38.548Z,35.63
2019-04-29T21:36:19.219Z,35.05
2019-04-29T21:39:00.935Z,34.81
2019-04-29T21:41:27.387Z,35.01
2019-04-29T21:43:54.700Z,35.35
2019-04-29T21:46:27.816Z,35.35
2019-04-29T21:48:49.109Z,36.62
2019-04-29T21:51:17.256Z,36.86
2019-04-29T21:53:43.449Z,37.49
2019-04-29T21:56:09.736Z,37.44
2019-04-29T21:58:36.521Z,37.21
2019-04-29T22:01:04.907Z,38.50
2019-04-29T22:03:31.377Z,39.02
2019-04-29T22:06:00.186Z,38.50
2019-04-29T22:08:29.796Z,38.69
2019-04-29T22:10:59.674Z,37.81
2019-04-29T22:13:22.216Z,38.54
2019-04-29T22:15:48.369Z,38.71
2019-04-29T22:18:17.420Z,38.54
2019-04-29T22:20:43.424Z,38.50
2019-04-29T22:23:13.234Z,39.69
2019-04-29T22:25:41.011Z,39.66
2019-04-29T22:28:06.264Z,39.94
2019-04-29T22:30:32.549Z,40.88
2019-04-29T22:32:59.948Z,41.90
2019-04-29T22:35:27.724Z,39.70
2019-04-29T22:37:55.505Z,38.48
2019-04-29T22:40:22.033Z,37.97
2019-04-29T22:43:04.821Z,35.96
2019-04-29T22:45:25.002Z,36.15
2019-04-29T22:47:54.367Z,38.92
2019-04-29T22:50:19.230Z,39.08
2019-04-29T22:52:45.438Z,40.12
2019-04-29T22:55:11.896Z,39.67
2019-04-29T22:57:38.052Z,38.88
2019-04-29T23:00:07.267Z,39.33
2019-04-29T23:02:33.433Z,38.72
2019-04-29T23:04:59.595Z,38.41
2019-04-29T23:07:25.894Z,38.35
2019-04-29T23:09:52.074Z,39.34
2019-04-29T23:12:18.757Z,38.64
2019-04-29T23:14:45.745Z,37.39
2019-04-29T23:17:13.355Z,38.21
2019-04-29T23:19:40.576Z,39.08
2019-04-29T23:22:21.947Z,38.55
2019-04-29T23:24:51.300Z,37.73
2019-04-29T23:27:19.608Z,37.86
2019-04-29T23:29:46.089Z,35.71
2019-04-29T23:32:12.348Z,35.93
2019-04-29T23:34:38.565Z,35.50
2019-04-29T23:37:04.736Z,35.43
2019-04-29T23:39:30.995Z,35.15
2019-04-29T23:41:57.211Z,36.25
2019-04-29T23:44:23.383Z,37.04
2019-04-29T23:46:49.561Z,36.27
2019-04-29T23:49:15.743Z,38.38
2019-04-29T23:51:41.923Z,38.31
2019-04-29T23:54:08.248Z,38.40
2019-04-29T23:56:42.831Z,41.16
2019-04-29T23:59:18.261Z,39.23
